Time;durP1;ratioP1;P1;durP2;ratioP2;P2;SDS_P1;SDS_P2;PMS_P1;PMS_P2;Temp;Humidity;BMP_temperature;BMP_pressure;BME280_temperature;BME280_humidity;BME280_pressure;Samples;Min_cycle;Max_cycle;Signal;HPM_P1;HPM_P2
2022/03/04 00:00:39;;;;;;;;;;;;;;;20.83;43.19;101409.91;7281306;19;153314;-53
2022/03/04 00:03:06;;;;;;;;;;;;;;;20.81;43.57;101409.34;7279082;19;153800;-53
2022/03/04 00:05:33;;;;;;;;;;;;;;;20.81;43.33;101408.50;7281322;19;151787;-54
2022/03/04 00:08:00;;;;;;;;;;;;;;;20.79;43.59;101408.81;7284013;19;153422;-53
2022/03/04 00:10:27;;;;;;;;;;;;;;;20.78;43.23;101407.16;7280383;19;153261;-53
2022/03/04 00:12:54;;;;;;;;;;;;;;;20.78;43.24;101407.16;7282234;19;151750;-54
2022/03/04 00:15:21;;;;;;;;;;;;;;;20.77;43.89;101407.44;7281724;19;153123;-53
2022/03/04 00:17:48;;;;;;;;;;;;;;;20.74;43.51;101408.88;7286688;19;153524;-52
2022/03/04 00:20:15;;;;;;;;;;;;;;;20.74;43.84;101413.66;7280921;19;153606;-53
2022/03/04 00:22:42;;;;;;;;;;;;;;;20.73;43.54;101407.22;7281422;19;154464;-54
2022/03/04 00:25:09;;;;;;;;;;;;;;;20.72;43.87;101416.75;7279960;19;151956;-53
2022/03/04 00:27:36;;;;;;;;;;;;;;;20.71;43.56;101417.91;7281744;19;153530;-53
2022/03/04 00:30:03;;;;;;;;;;;;;;;20.76;43.74;101417.84;7279523;19;153979;-53
2022/03/04 00:32:30;;;;;;;;;;;;;;;20.72;44.05;101419.56;7281729;19;151828;-54
2022/03/04 00:34:57;;;;;;;;;;;;;;;20.70;43.96;101423.81;7282249;19;152918;-53
2022/03/04 00:37:23;;;;;;;;;;;;;;;20.68;44.40;101424.09;7286436;19;154425;-53
2022/03/04 00:39:50;;;;;;;;;;;;;;;20.67;44.41;101430.84;7282867;19;152937;-53
2022/03/04 00:42:16;;;;;;;;;;;;;;;20.65;44.35;101427.53;7280993;19;154361;-53
2022/03/04 00:44:43;;;;;;;;;;;;;;;20.64;44.80;101427.81;7282004;19;151752;-52
2022/03/04 00:47:10;;;;;;;;;;;;;;;20.63;44.36;101428.94;7277893;19;153211;-53
2022/03/04 00:49:37;;;;;;;;;;;;;;;20.61;44.87;101432.06;7280110;19;153353;-52
2022/03/04 00:52:03;;;;;;;;;;;;;;;20.60;44.56;101429.53;7279664;19;151672;-53
2022/03/04 00:54:30;;;;;;;;;;;;;;;20.56;45.00;101426.50;7282495;19;153623;-52
2022/03/04 00:56:57;;;;;;;;;;;;;;;20.56;44.80;101428.47;7276131;19;154827;-53
2022/03/04 00:59:23;;;;;;;;;;;;;;;20.55;44.91;101427.63;7289472;19;151726;-52
2022/03/04 01:01:51;;;;;;;;;;;;;;;20.52;45.02;101435.81;7278228;19;153887;-53
2022/03/04 01:04:18;;;;;;;;;;;;;;;20.51;44.84;101434.13;7282351;19;151729;-53
2022/03/04 01:06:45;;;;;;;;;;;;;;;20.50;45.25;101436.09;7279633;19;152442;-53
2022/03/04 01:09:12;;;;;;;;;;;;;;;20.47;45.39;101431.09;7278649;19;153456;-53
2022/03/04 01:11:38;;;;;;;;;;;;;;;20.47;45.35;101421.81;7281898;19;151479;-53
2022/03/04 01:14:06;;;;;;;;;;;;;;;20.44;45.47;101428.88;7281027;19;153164;-54
2022/03/04 01:16:33;;;;;;;;;;;;;;;20.44;45.57;101426.06;7278460;19;154661;-53
2022/03/04 01:18:59;;;;;;;;;;;;;;;20.41;45.24;101429.44;7280345;19;151592;-53
2022/03/04 01:21:26;;;;;;;;;;;;;;;20.41;45.53;101429.44;7287905;19;153146;-53
2022/03/04 01:23:53;;;;;;;;;;;;;;;20.41;45.39;101426.66;7278819;19;151825;-53
2022/03/04 01:26:20;;;;;;;;;;;;;;;20.37;45.75;101429.22;7279933;19;153034;-52
2022/03/04 01:28:47;;;;;;;;;;;;;;;20.37;45.38;101419.94;7277588;19;154152;-53
2022/03/04 01:31:15;;;;;;;;;;;;;;;20.36;45.92;101426.69;7278104;19;152088;-53
2022/03/04 01:33:42;;;;;;;;;;;;;;;20.37;45.63;101419.94;7281710;19;152858;-53
2022/03/04 01:36:09;;;;;;;;;;;;;;;20.35;45.37;101419.44;7279953;19;153244;-53
2022/03/04 01:38:35;;;;;;;;;;;;;;;20.33;46.07;101422.53;7277786;19;151898;-54
2022/03/04 01:41:03;;;;;;;;;;;;;;;20.33;45.79;101416.06;7280433;19;155395;-53
2022/03/04 01:43:29;;;;;;;;;;;;;;;20.32;45.91;101418.03;7286697;19;153674;-53
2022/03/04 01:45:56;;;;;;;;;;;;;;;20.28;45.90;101422.53;7277292;19;152038;-53
2022/03/04 01:48:23;;;;;;;;;;;;;;;20.29;45.89;101420.56;7279370;19;153718;-54
2022/03/04 01:50:50;;;;;;;;;;;;;;;20.29;45.97;101413.00;7281511;19;151786;-53
2022/03/04 01:53:18;;;;;;;;;;;;;;;20.26;45.83;101415.56;7274542;19;153574;-53
2022/03/04 01:55:47;;;;;;;;;;;;;;;20.24;46.20;101409.38;7276295;19;154174;-53
2022/03/04 01:58:14;;;;;;;;;;;;;;;20.24;45.96;101413.03;7280564;19;151724;-53
2022/03/04 02:00:40;;;;;;;;;;;;;;;20.24;46.01;101410.22;7280423;19;153696;-52
2022/03/04 02:03:09;;;;;;;;;;;;;;;20.23;46.29;101411.34;7277906;19;153396;-54
2022/03/04 02:05:36;;;;;;;;;;;;;;;20.21;46.37;101413.63;7285486;19;151882;-53
2022/03/04 02:08:03;;;;;;;;;;;;;;;20.20;46.34;101416.72;7275663;19;154077;-53
2022/03/04 02:10:30;;;;;;;;;;;;;;;20.17;46.05;101418.13;7286706;19;151501;-53
2022/03/04 02:12:56;;;;;;;;;;;;;;;20.16;46.17;101413.69;7286230;19;152817;-53
2022/03/04 02:15:23;;;;;;;;;;;;;;;20.16;46.49;101421.25;7285256;19;154377;-53
2022/03/04 02:17:49;;;;;;;;;;;;;;;20.18;46.57;101413.38;7285906;19;151944;-53
2022/03/04 02:20:19;;;;;;;;;;;;;;;20.14;46.38;101403.88;7285180;19;153311;-54
2022/03/04 02:22:46;;;;;;;;;;;;;;;20.12;46.24;101407.00;7283107;19;153429;-53
2022/03/04 02:25:13;;;;;;;;;;;;;;;20.11;46.16;101394.09;7285034;19;152275;-53
2022/03/04 02:27:40;;;;;;;;;;;;;;;20.11;46.19;101396.91;7291394;19;152751;-53
2022/03/04 02:30:07;;;;;;;;;;;;;;;20.09;46.15;101396.34;7284184;19;151526;-54
2022/03/04 02:32:33;;;;;;;;;;;;;;;20.07;46.21;101397.78;7285807;19;153387;-53
2022/03/04 02:35:01;;;;;;;;;;;;;;;20.04;46.24;101399.19;7284979;19;153271;-53
2022/03/04 02:37:28;;;;;;;;;;;;;;;20.04;46.40;101399.19;7285571;19;151976;-54
2022/03/04 02:39:54;;;;;;;;;;;;;;;20.03;46.37;101391.09;7285660;19;153491;-52
2022/03/04 02:42:22;;;;;;;;;;;;;;;20.01;46.39;101384.91;7284017;19;154013;-53
2022/03/04 02:44:49;;;;;;;;;;;;;;;20.01;46.36;101387.72;7285594;19;151613;-52
2022/03/04 02:47:16;;;;;;;;;;;;;;;19.98;46.79;101392.81;7287747;19;153367;-53
2022/03/04 02:49:47;;;;;;;;;;;;;;;19.98;46.70;101398.41;7285601;19;151775;-53
2022/03/04 02:52:14;;;;;;;;;;;;;;;19.96;46.56;101395.06;7283547;19;152805;-53
2022/03/04 02:54:41;;;;;;;;;;;;;;;19.97;46.56;101396.72;7284352;19;153170;-53
2022/03/04 02:57:07;;;;;;;;;;;;;;;19.96;46.58;101395.06;7282937;19;152085;-52
2022/03/04 02:59:34;;;;;;;;;;;;;;;19.93;47.03;101395.66;7285610;19;152811;-53
2022/03/04 03:02:01;;;;;;;;;;;;;;;19.92;46.50;101396.78;7282463;19;153394;-53
2022/03/04 03:04:28;;;;;;;;;;;;;;;19.92;46.89;101393.97;7284825;19;152664;-53
2022/03/04 03:06:54;;;;;;;;;;;;;;;19.91;46.87;101395.09;7281446;19;153519;-53
2022/03/04 03:09:21;;;;;;;;;;;;;;;19.90;47.07;101392.56;7290416;19;153491;-53
2022/03/04 03:11:48;;;;;;;;;;;;;;;19.89;47.14;101385.31;7284240;19;151640;-52
2022/03/04 03:14:14;;;;;;;;;;;;;;;19.90;46.77;101384.16;7279052;19;153338;-54
2022/03/04 03:16:41;;;;;;;;;;;;;;;19.89;46.99;101388.13;7283504;19;151640;-53
2022/03/04 03:19:08;;;;;;;;;;;;;;;19.87;47.24;101391.22;7285394;19;152766;-53
2022/03/04 03:21:34;;;;;;;;;;;;;;;19.87;46.97;101393.16;7281517;19;153940;-53
2022/03/04 03:24:01;;;;;;;;;;;;;;;19.86;47.01;101381.13;7285212;19;151698;-53
2022/03/04 03:26:28;;;;;;;;;;;;;;;19.84;47.25;101380.59;7281208;19;152934;-53
2022/03/04 03:28:54;;;;;;;;;;;;;;;19.85;47.44;101381.44;7283141;19;154254;-53
2022/03/04 03:31:21;;;;;;;;;;;;;;;19.86;47.64;101388.69;7288385;19;151919;-53
2022/03/04 03:33:48;;;;;;;;;;;;;;;19.85;47.40;101392.66;7283041;19;152095;-53
2022/03/04 03:36:14;;;;;;;;;;;;;;;19.81;47.44;101397.97;7282761;19;151771;-53
2022/03/04 03:38:41;;;;;;;;;;;;;;;19.78;47.23;101395.78;7281063;19;153522;-53
2022/03/04 03:41:08;;;;;;;;;;;;;;;19.78;47.28;101392.97;7282641;19;153478;-55
2022/03/04 03:43:39;;;;;;;;;;;;;;;19.76;47.27;101400.81;7283324;19;151878;-52
2022/03/04 03:46:06;;;;;;;;;;;;;;;19.76;47.60;101403.63;7284099;19;152769;-52
2022/03/04 03:48:33;;;;;;;;;;;;;;;19.73;47.72;101397.75;7277679;19;153502;-52
2022/03/04 03:51:01;;;;;;;;;;;;;;;19.74;47.77;101402.25;7283312;19;151978;-53
2022/03/04 03:53:27;;;;;;;;;;;;;;;19.73;47.37;101400.56;7289428;19;152896;-53
2022/03/04 03:55:54;;;;;;;;;;;;;;;19.72;47.72;101402.53;7283669;19;151737;-53
2022/03/04 03:58:20;;;;;;;;;;;;;;;19.71;47.88;101397.25;7281059;19;152835;-53
2022/03/04 04:00:47;;;;;;;;;;;;;;;19.71;47.55;101395.28;7282276;19;153819;-53
2022/03/04 04:03:14;;;;;;;;;;;;;;;19.68;47.52;101393.03;7283643;19;152057;-52
2022/03/04 04:05:40;;;;;;;;;;;;;;;19.69;47.77;101402.28;7282853;19;152978;-53
2022/03/04 04:08:07;;;;;;;;;;;;;;;19.68;47.50;101407.06;7280312;19;153723;-53
2022/03/04 04:10:34;;;;;;;;;;;;;;;19.65;48.00;101404.00;7282370;19;151915;-52
2022/03/04 04:13:00;;;;;;;;;;;;;;;19.65;47.85;101413.25;7282829;19;153613;-53
2022/03/04 04:15:27;;;;;;;;;;;;;;;19.64;47.61;101411.56;7289730;19;154138;-53
2022/03/04 04:17:54;;;;;;;;;;;;;;;19.65;47.90;101413.25;7283874;19;152879;-53
2022/03/04 04:20:21;;;;;;;;;;;;;;;19.65;47.99;101416.06;7281024;19;154002;-52
2022/03/04 04:22:47;;;;;;;;;;;;;;;19.66;47.97;101417.72;7283988;19;151861;-53
2022/03/04 04:25:14;;;;;;;;;;;;;;;19.70;47.65;101416.03;7280293;19;152962;-53
2022/03/04 04:27:41;;;;;;;;;;;;;;;19.67;48.03;101416.59;7278158;19;154520;-53
2022/03/04 04:30:08;;;;;;;;;;;;;;;19.62;47.98;101419.44;7279601;19;151815;-53
2022/03/04 04:32:34;;;;;;;;;;;;;;;19.60;47.71;101427.28;7280578;19;152854;-53
2022/03/04 04:35:01;;;;;;;;;;;;;;;19.58;48.18;101429.53;7281677;19;154073;-53
2022/03/04 04:37:28;;;;;;;;;;;;;;;19.59;48.07;101430.38;7289431;19;151716;-53
2022/03/04 04:39:54;;;;;;;;;;;;;;;19.59;48.17;101430.38;7279767;19;153354;-53
2022/03/04 04:42:21;;;;;;;;;;;;;;;19.64;47.91;101438.75;7282587;19;152016;-54
2022/03/04 04:44:48;;;;;;;;;;;;;;;19.59;48.05;101428.41;7280405;19;153477;-53
2022/03/04 04:47:14;;;;;;;;;;;;;;;19.56;47.99;101437.41;7277897;19;153746;-53
2022/03/04 04:49:41;;;;;;;;;;;;;;;19.53;47.82;101438.81;7282640;19;151802;-53
2022/03/04 04:52:08;;;;;;;;;;;;;;;19.53;48.25;101429.59;7278542;19;155196;-53
2022/03/04 04:54:35;;;;;;;;;;;;;;;19.50;48.03;101433.81;7280209;19;153886;-53
2022/03/04 04:57:02;;;;;;;;;;;;;;;19.50;47.92;101436.59;7287483;19;151623;-53
2022/03/04 04:59:28;;;;;;;;;;;;;;;19.49;48.34;101434.09;7280326;19;153736;-53
2022/03/04 05:01:55;;;;;;;;;;;;;;;19.49;48.17;101434.09;7279584;19;151580;-53
2022/03/04 05:04:22;;;;;;;;;;;;;;;19.46;48.38;101438.31;7278722;19;153074;-53
2022/03/04 05:06:49;;;;;;;;;;;;;;;19.46;48.09;101443.06;7280261;19;153692;-54
2022/03/04 05:09:15;;;;;;;;;;;;;;;19.46;48.35;101437.47;7279470;19;152011;-54
2022/03/04 05:11:42;;;;;;;;;;;;;;;19.45;48.06;101444.19;7279987;19;152769;-53
2022/03/04 05:14:10;;;;;;;;;;;;;;;19.43;48.32;101450.13;7277935;19;153539;-53
2022/03/04 05:16:36;;;;;;;;;;;;;;;19.41;48.18;101449.53;7281492;19;151979;-53
2022/03/04 05:19:03;;;;;;;;;;;;;;;19.42;48.15;101455.97;7288717;19;152904;-52
2022/03/04 05:21:30;;;;;;;;;;;;;;;19.43;48.59;101457.66;7280386;19;151801;-53
2022/03/04 05:24:00;;;;;;;;;;;;;;;19.41;48.76;101457.09;7281560;19;153034;-53
2022/03/04 05:26:28;;;;;;;;;;;;;;;19.38;48.81;101461.31;7278489;19;153515;-53
2022/03/04 05:28:55;;;;;;;;;;;;;;;19.38;48.79;101466.06;7278794;19;151589;-53
2022/03/04 05:31:22;;;;;;;;;;;;;;;19.36;48.45;101468.31;7278131;19;152768;-53
2022/03/04 05:33:50;;;;;;;;;;;;;;;19.36;48.75;101468.31;7277539;19;156095;-53
2022/03/04 05:36:17;;;;;;;;;;;;;;;19.37;48.45;101472.81;7278800;19;151998;-53
2022/03/04 05:38:44;;;;;;;;;;;;;;;19.42;48.77;101476.41;7277930;19;153868;-53
2022/03/04 05:41:11;;;;;;;;;;;;;;;19.46;49.03;101471.94;7284359;19;154168;-53
2022/03/04 05:43:39;;;;;;;;;;;;;;;19.43;48.12;101474.47;7282747;19;153351;-53
2022/03/04 05:46:06;;;;;;;;;;;;;;;19.46;48.23;101465.50;7283684;19;154145;-53
2022/03/04 05:48:33;;;;;;;;;;;;;;;19.51;48.48;101477.53;7284777;19;151886;-52
2022/03/04 05:51:01;;;;;;;;;;;;;;;19.57;48.97;101471.91;7286332;19;152569;-53
2022/03/04 05:53:27;;;;;;;;;;;;;;;19.62;49.35;101469.06;7285421;19;153467;-53
2022/03/04 05:55:54;;;;;;;;;;;;;;;19.67;48.92;101477.44;7286809;19;151887;-53
2022/03/04 05:58:21;;;;;;;;;;;;;;;19.72;49.03;101478.22;7287614;19;153184;-54
2022/03/04 06:00:47;;;;;;;;;;;;;;;19.77;49.13;101471.75;7284853;19;154771;-54
2022/03/04 06:03:14;;;;;;;;;;;;;;;19.83;49.15;101482.66;7290602;19;151547;-54
2022/03/04 06:05:42;;;;;;;;;;;;;;;19.89;49.13;101478.69;7283935;19;152695;-53
2022/03/04 06:08:09;;;;;;;;;;;;;;;19.94;49.15;101481.44;7285116;19;151767;-52
2022/03/04 06:10:36;;;;;;;;;;;;;;;20.02;49.04;101484.78;7284237;19;153330;-53
2022/03/04 06:13:03;;;;;;;;;;;;;;;20.08;48.82;101494.84;7282205;19;153633;-52
2022/03/04 06:15:30;;;;;;;;;;;;;;;20.14;49.11;101491.69;7286890;19;151604;-53
2022/03/04 06:17:56;;;;;;;;;;;;;;;20.21;48.66;101494.16;7284334;19;153223;-53
2022/03/04 06:20:23;;;;;;;;;;;;;;;20.27;49.17;101491.00;7284975;19;154263;-54
2022/03/04 06:22:50;;;;;;;;;;;;;;;20.34;48.75;101504.75;7285700;19;151761;-54
2022/03/04 06:25:16;;;;;;;;;;;;;;;20.39;49.00;101497.13;7290429;19;153405;-53
2022/03/04 06:27:53;;;;;;;;;;;;;;;20.46;48.40;101502.38;7283417;19;152252;-53
2022/03/04 06:30:20;;;;;;;;;;;;;;;20.52;48.74;101501.22;7286272;19;152814;-53
2022/03/04 06:32:47;;;;;;;;;;;;;;;20.59;48.42;101495.25;7284093;19;154173;-53
2022/03/04 06:35:14;;;;;;;;;;;;;;;20.65;48.67;101499.69;7284231;19;151600;-53
2022/03/04 06:37:41;;;;;;;;;;;;;;;20.71;48.48;101492.91;7282324;19;153802;-53
2022/03/04 06:40:08;;;;;;;;;;;;;;;20.76;48.13;101499.28;7283499;19;154350;-53
2022/03/04 06:42:35;;;;;;;;;;;;;;;20.82;48.09;101509.31;7284485;19;151870;-54
2022/03/04 06:45:02;;;;;;;;;;;;;;;20.88;48.48;101506.47;7283501;19;152617;-53
2022/03/04 06:47:28;;;;;;;;;;;;;;;20.94;48.28;101513.72;7288404;19;151687;-53
2022/03/04 06:49:55;;;;;;;;;;;;;;;20.98;48.09;101517.59;7285902;19;153321;-54
2022/03/04 06:52:22;;;;;;;;;;;;;;;21.03;47.53;101515.56;7282170;19;154067;-52
2022/03/04 06:54:49;;;;;;;;;;;;;;;21.08;47.84;101509.03;7283989;19;151853;-53
2022/03/04 06:57:15;;;;;;;;;;;;;;;21.13;48.15;101523.06;7284256;19;152690;-53
2022/03/04 06:59:42;;;;;;;;;;;;;;;21.17;47.66;101527.78;7284033;19;155625;-53
2022/03/04 07:02:10;;;;;;;;;;;;;;;21.21;47.30;101523.25;7285024;19;152049;-53
2022/03/04 07:04:37;;;;;;;;;;;;;;;21.27;47.45;101535.25;7285711;19;153013;-53
2022/03/04 07:07:04;;;;;;;;;;;;;;;21.32;47.17;101529.59;7288783;19;153494;-54
2022/03/04 07:09:30;;;;;;;;;;;;;;;21.37;47.00;101531.50;7282953;19;153545;-53
2022/03/04 07:11:57;;;;;;;;;;;;;;;21.41;47.11;101524.97;7282478;19;154108;-53
2022/03/04 07:14:24;;;;;;;;;;;;;;;21.46;46.82;101536.16;7283720;19;152082;-53
2022/03/04 07:16:51;;;;;;;;;;;;;;;21.49;47.14;101532.75;7285123;19;153031;-53
2022/03/04 07:19:18;;;;;;;;;;;;;;;21.55;47.18;101541.94;7283048;19;153288;-52
2022/03/04 07:21:44;;;;;;;;;;;;;;;21.59;47.05;101548.66;7284656;19;151947;-53
2022/03/04 07:24:12;;;;;;;;;;;;;;;21.64;47.08;101542.97;7284221;19;153127;-53
2022/03/04 07:26:38;;;;;;;;;;;;;;;21.66;46.75;101549.13;7282904;19;154452;-52
2022/03/04 07:29:05;;;;;;;;;;;;;;;21.63;46.00;101556.19;7290530;19;152098;-53
2022/03/04 07:31:32;;;;;;;;;;;;;;;21.61;45.59;101552.84;7282365;19;154097;-52
2022/03/04 07:33:59;;;;;;;;;;;;;;;21.60;45.04;101556.78;7284570;19;151692;-53
2022/03/04 07:36:26;;;;;;;;;;;;;;;21.46;44.50;101567.09;7281510;19;152788;-53
2022/03/04 07:38:55;;;;;;;;;;;;;;;21.47;44.43;101557.53;7283134;19;153744;-53
2022/03/04 07:41:22;;;;;;;;;;;;;;;21.51;43.66;101557.75;7283496;19;151813;-54
2022/03/04 07:43:50;;;;;;;;;;;;;;;21.49;44.06;101566.47;7282978;19;153215;-53
2022/03/04 07:46:17;;;;;;;;;;;;;;;21.50;44.02;101568.16;7282074;19;155386;-53
2022/03/04 07:48:48;;;;;;;;;;;;;;;21.50;43.74;101565.34;7281521;19;151817;-53
2022/03/04 07:51:15;;;;;;;;;;;;;;;21.49;44.04;101569.28;7289478;19;153354;-54
2022/03/04 07:53:41;;;;;;;;;;;;;;;21.50;43.83;101564.50;7283857;19;151690;-53
2022/03/04 07:56:09;;;;;;;;;;;;;;;21.49;43.74;101566.47;7280800;19;151701;-53
2022/03/04 07:58:36;;;;;;;;;;;;;;;21.47;43.82;101567.94;7280710;19;153836;-54
2022/03/04 08:01:03;;;;;;;;;;;;;;;21.46;43.70;101566.25;7280797;19;151725;-54
2022/03/04 08:03:46;;;;;;;;;;;;;;;21.45;43.74;101564.56;7281777;19;152819;-53
2022/03/04 08:06:14;;;;;;;;;;;;;;;21.45;44.02;101564.56;7281628;19;153746;-53
2022/03/04 08:08:40;;;;;;;;;;;;;;;21.44;43.57;101560.09;7282718;19;151815;-53
2022/03/04 08:11:07;;;;;;;;;;;;;;;21.42;43.59;101563.19;7282691;19;153365;-54
2022/03/04 08:13:36;;;;;;;;;;;;;;;21.45;43.82;101565.41;7289858;19;153588;-53
2022/03/04 08:16:03;;;;;;;;;;;;;;;21.43;43.70;101570.50;7283586;19;153191;-53
2022/03/04 08:18:30;;;;;;;;;;;;;;;21.47;44.02;101582.81;7283042;19;153249;-54
2022/03/04 08:20:59;;;;;;;;;;;;;;;21.43;44.12;101589.34;7281229;19;151888;-53
2022/03/04 08:23:26;;;;;;;;;;;;;;;21.46;43.74;101588.75;7282192;19;153806;-57
2022/03/04 08:25:52;;;;;;;;;;;;;;;21.44;43.93;101603.09;7280726;19;154193;-53
2022/03/04 08:28:19;;;;;;;;;;;;;;;21.43;44.24;101604.25;7281277;19;151746;-52
2022/03/04 08:30:46;;;;;;;;;;;;;;;21.41;44.14;101598.06;7278923;19;152779;-54
2022/03/04 08:33:13;;;;;;;;;;;;;;;21.40;44.03;101604.81;7280602;19;154362;-53
2022/03/04 08:35:40;;;;;;;;;;;;;;;21.39;43.81;101608.78;7289364;19;151972;-53
2022/03/04 08:38:06;;;;;;;;;;;;;;;21.37;43.86;101613.88;7279444;19;153833;-52
2022/03/04 08:40:33;;;;;;;;;;;;;;;21.36;43.63;101615.00;7279708;19;151822;-53
2022/03/04 08:43:03;;;;;;;;;;;;;;;21.34;43.59;101613.63;7282329;19;152745;-53
2022/03/04 08:45:30;;;;;;;;;;;;;;;21.30;43.84;101614.19;7280453;19;153314;-54
2022/03/04 08:47:57;;;;;;;;;;;;;;;21.28;43.55;101622.13;7281966;19;151509;-52
2022/03/04 08:50:25;;;;;;;;;;;;;;;21.27;44.00;101617.63;7279444;19;154817;-52
2022/03/04 08:52:52;;;;;;;;;;;;;;;21.24;43.87;101621.03;7275126;19;154184;-53
2022/03/04 08:55:18;;;;;;;;;;;;;;;21.23;44.05;101627.78;7290357;19;151511;-52
2022/03/04 08:57:46;;;;;;;;;;;;;;;21.21;43.63;101627.22;7280420;19;153819;-53
2022/03/04 09:00:14;;;;;;;;;;;;;;;21.17;43.51;101628.97;7280034;19;152125;-52
2022/03/04 09:02:41;;;;;;;;;;;;;;;21.17;44.01;101637.38;7280105;19;152807;-52
2022/03/04 09:05:08;;;;;;;;;;;;;;;21.15;43.67;101636.03;7278285;19;153778;-53
2022/03/04 09:07:36;;;;;;;;;;;;;;;21.13;43.98;101633.50;7281546;19;151888;-53
2022/03/04 09:10:03;;;;;;;;;;;;;;;21.11;43.59;101646.16;7276579;19;153450;-53
2022/03/04 09:12:30;;;;;;;;;;;;;;;21.08;43.77;101643.91;7277540;19;153959;-52
2022/03/04 09:14:57;;;;;;;;;;;;;;;21.06;43.79;101647.03;7281529;19;151839;-54
2022/03/04 09:17:24;;;;;;;;;;;;;;;21.05;43.84;101647.31;7283973;19;153308;-54
2022/03/04 09:19:51;;;;;;;;;;;;;;;21.02;43.63;101648.75;7279919;19;151899;-52
2022/03/04 09:22:23;;;;;;;;;;;;;;;20.99;43.79;101645.69;7280644;19;155052;-53
2022/03/04 09:24:50;;;;;;;;;;;;;;;20.98;43.94;101644.03;7277834;19;153363;-52
2022/03/04 09:27:18;;;;;;;;;;;;;;;20.94;43.65;101657.78;7277446;19;152086;-53
2022/03/04 09:29:46;;;;;;;;;;;;;;;20.92;43.92;101651.66;7276015;19;152309;-53
2022/03/04 09:32:13;;;;;;;;;;;;;;;20.88;44.05;101644.94;7278478;19;155089;-53
2022/03/04 09:34:40;;;;;;;;;;;;;;;20.85;44.05;101642.72;7280033;19;151566;-52
2022/03/04 09:37:06;;;;;;;;;;;;;;;20.84;44.04;101650.31;7280907;19;153490;-52
2022/03/04 09:39:33;;;;;;;;;;;;;;;20.81;43.80;101650.88;7287374;19;154400;-53
2022/03/04 09:42:00;;;;;;;;;;;;;;;20.77;43.87;101654.56;7278314;19;153599;-53
2022/03/04 09:44:27;;;;;;;;;;;;;;;20.74;44.00;101656.00;7277546;19;153772;-53
2022/03/04 09:46:56;;;;;;;;;;;;;;;20.73;43.88;101656.28;7278488;19;151482;-53
2022/03/04 09:49:25;;;;;;;;;;;;;;;20.71;44.00;101658.56;7277006;19;153814;-53
2022/03/04 09:51:52;;;;;;;;;;;;;;;20.68;44.18;101653.53;7277407;19;153770;-53
2022/03/04 09:54:19;;;;;;;;;;;;;;;20.64;43.89;101656.09;7278828;19;151620;-53
2022/03/04 09:56:46;;;;;;;;;;;;;;;20.61;44.32;101667.91;7279828;19;153219;-53
2022/03/04 09:59:13;;;;;;;;;;;;;;;20.60;44.35;101660.59;7277103;19;154009;-53
2022/03/04 10:01:41;;;;;;;;;;;;;;;20.58;44.25;101662.03;7285163;19;152505;-52
2022/03/04 10:04:08;;;;;;;;;;;;;;;20.58;43.91;101657.25;7276735;19;153977;-52
2022/03/04 10:06:36;;;;;;;;;;;;;;;20.59;44.16;101658.94;7278902;19;151658;-52
2022/03/04 10:09:03;;;;;;;;;;;;;;;20.62;44.08;101663.13;7279310;19;153778;-53
2022/03/04 10:11:31;;;;;;;;;;;;;;;20.65;43.95;101656.94;7278016;19;153257;-53
2022/03/04 10:13:59;;;;;;;;;;;;;;;20.71;43.96;101672.63;7280061;19;152064;-53
2022/03/04 10:16:26;;;;;;;;;;;;;;;20.73;43.55;101671.19;7278721;19;154091;-53
2022/03/04 10:19:03;;;;;;;;;;;;;;;20.79;43.51;101674.78;7279066;19;153584;-52
2022/03/04 10:21:43;;;;;;;;;;;;;;;20.84;43.46;101680.38;7276821;19;152107;-53
2022/03/04 10:24:10;;;;;;;;;;;;;;;20.89;43.62;101685.13;7284878;19;152380;-53
2022/03/04 10:26:36;;;;;;;;;;;;;;;20.93;43.70;101678.63;7279112;19;151891;-53
2022/03/04 10:29:13;;;;;;;;;;;;;;;20.97;43.57;101682.50;7278672;19;153334;-53
2022/03/04 10:31:39;;;;;;;;;;;;;;;21.00;43.36;101684.72;7283803;19;153480;-53
2022/03/04 10:34:26;;;;;;;;;;;;;;;21.04;43.18;101693.41;7284227;19;151684;-53
2022/03/04 10:36:56;;;;;;;;;;;;;;;21.06;43.09;101686.38;7283325;19;153260;-53
2022/03/04 10:39:23;;;;;;;;;;;;;;;21.09;43.25;101684.94;7284945;19;153349;-53
2022/03/04 10:41:50;;;;;;;;;;;;;;;21.11;42.96;101693.91;7285957;19;152122;-53
2022/03/04 10:44:25;;;;;;;;;;;;;;;21.12;43.03;101687.16;7285042;19;152648;-53
2022/03/04 10:46:54;;;;;;;;;;;;;;;21.14;42.94;101687.72;7289765;19;154973;-53
2022/03/04 10:49:25;;;;;;;;;;;;;;;21.16;42.82;101689.13;7283322;19;153258;-53
2022/03/04 10:52:04;;;;;;;;;;;;;;;21.15;43.21;101690.25;7282660;19;156287;-53
2022/03/04 10:54:38;;;;;;;;;;;;;;;21.18;42.86;101692.47;7285784;19;151502;-52
2022/03/04 10:57:08;;;;;;;;;;;;;;;21.18;42.97;101688.81;7284635;19;152604;-53
2022/03/04 10:59:35;;;;;;;;;;;;;;;21.18;43.03;101689.66;7284135;19;154094;-53
2022/03/04 11:02:02;;;;;;;;;;;;;;;21.19;43.05;101680.09;7282321;19;151749;-53
2022/03/04 11:04:30;;;;;;;;;;;;;;;21.19;42.61;101682.91;7283117;19;152561;-54
2022/03/04 11:06:57;;;;;;;;;;;;;;;21.20;43.00;101686.56;7288578;19;155128;-53
2022/03/04 11:09:24;;;;;;;;;;;;;;;21.20;42.96;101695.84;7283015;19;152735;-53
2022/03/04 11:11:53;;;;;;;;;;;;;;;21.19;42.67;101701.75;7281933;19;154185;-53
2022/03/04 11:14:21;;;;;;;;;;;;;;;21.17;42.77;101699.22;7283485;19;151658;-53
2022/03/04 11:16:49;;;;;;;;;;;;;;;21.17;42.60;101693.59;7285262;19;152458;-53
2022/03/04 11:19:17;;;;;;;;;;;;;;;21.16;42.50;101703.19;7282047;19;153619;-53
2022/03/04 11:21:44;;;;;;;;;;;;;;;21.16;42.38;101696.72;7284275;19;151693;-53
2022/03/04 11:24:11;;;;;;;;;;;;;;;21.15;42.60;101700.66;7284572;19;152845;-53
2022/03/04 11:26:40;;;;;;;;;;;;;;;21.14;42.42;101699.81;7283296;19;153268;-53
2022/03/04 11:29:06;;;;;;;;;;;;;;;21.13;42.43;101702.91;7289791;19;151855;-53
2022/03/04 11:31:34;;;;;;;;;;;;;;;21.13;42.78;101705.72;7280828;19;153373;-53
2022/03/04 11:34:02;;;;;;;;;;;;;;;21.11;42.42;101696.72;7282802;19;152217;-53
2022/03/04 11:36:32;;;;;;;;;;;;;;;21.09;42.87;101701.78;7284003;19;152972;-53
2022/03/04 11:39:03;;;;;;;;;;;;;;;21.07;42.44;101702.09;7281385;19;153317;-53
2022/03/04 11:41:34;;;;;;;;;;;;;;;21.05;42.69;101695.94;7280807;19;153076;-53
2022/03/04 11:44:09;;;;;;;;;;;;;;;21.04;42.52;101699.00;7283161;19;153651;-53
2022/03/04 11:46:45;;;;;;;;;;;;;;;21.02;42.64;101693.72;7280961;19;154375;-53
2022/03/04 11:49:26;;;;;;;;;;;;;;;21.01;42.51;101696.81;7283936;19;151836;-53
2022/03/04 11:52:10;;;;;;;;;;;;;;;20.99;42.42;101701.88;7288998;19;153012;-54
2022/03/04 11:54:39;;;;;;;;;;;;;;;20.97;42.86;101699.38;7281953;19;151877;-53
2022/03/04 11:57:16;;;;;;;;;;;;;;;20.98;42.63;101703.03;7283855;19;153166;-53
2022/03/04 11:59:52;;;;;;;;;;;;;;;20.94;42.59;101704.75;7281068;19;153244;-53
2022/03/04 12:02:19;;;;;;;;;;;;;;;20.91;42.56;101700.53;7283261;19;151758;-53
2022/03/04 12:04:46;;;;;;;;;;;;;;;20.88;42.46;101703.09;7282665;19;152805;-56
2022/03/04 12:07:13;;;;;;;;;;;;;;;20.87;42.63;101705.06;7282195;19;153195;-53
2022/03/04 12:09:48;;;;;;;;;;;;;;;20.84;42.75;101702.84;7283403;19;151879;-53
2022/03/04 12:12:24;;;;;;;;;;;;;;;20.82;42.91;101711.56;7283978;19;153262;-52
2022/03/04 12:14:53;;;;;;;;;;;;;;;20.80;42.81;101710.19;7286585;19;153811;-53
2022/03/04 12:17:21;;;;;;;;;;;;;;;20.77;42.70;101710.75;7280672;19;153461;-53
2022/03/04 12:19:49;;;;;;;;;;;;;;;20.75;42.76;101707.41;7279919;19;153487;-55
2022/03/04 12:22:16;;;;;;;;;;;;;;;20.72;42.98;101714.44;7282042;19;151835;-54
2022/03/04 12:24:51;;;;;;;;;;;;;;;20.71;42.67;101717.53;7283243;19;152821;-54
2022/03/04 12:27:28;;;;;;;;;;;;;;;20.68;43.05;101721.75;7280027;19;153234;-53
2022/03/04 12:29:54;;;;;;;;;;;;;;;20.65;43.08;101713.94;7283101;19;151585;-53